Decoded Metar for KTEW (MASON in MI, USA) (IATA:TEW) | Meteo·Mobile Aviation Weather
aviador You're here:

KTEW Decoded Metar

MASON in MI, USA
Report Time2019-02-20 18:56:00
UTC Time2019-02-20 19:17:12
Flight Rules ifr IFR
Wind120° at 15 Gusting to 21 kt
W.Decomp.*RWY 10: 13.6 kt HW 6.3 kt RCW
W.Rank120° ranks 29
Current wind is above 120° avg. (5.5)
Visibility9999 m
Phenomena:N/A
Clouds:Overcast 009 Hf
Expected CloudBase > 800 ft AGL from Temp-Dew spread
Ceiling900 ft
Temp01°C (ISA -12)
Dew Point-1°C (87% RH)
AAT-6.5°C
QNH1011 hPa
Density Alt-413 ft
Elevation919 ft
Report Wrong Elevation
Raw Report
KTEW 201856Z AUTO 12015G21KT 10SM OVC009 01/M01 A2986 RMK AO2
T00091010=

Extra information for KTEW:More info

Metar Taf Metar & Taf Last 4 Metars F.Rules Stats Wind Profile Meteogram Temp Stats Airport Information Weather charts Add Link Nearby VenuesMetar ALERT Operation Metar Decoded Social comments

AIRNAV info for KTEW